Time;durP1;ratioP1;P1;durP2;ratioP2;P2;SDS_P1;SDS_P2;PMS_P1;PMS_P2;Temp;Humidity;BMP_temperature;BMP_pressure;BME280_temperature;BME280_humidity;BME280_pressure;Samples;Min_cycle;Max_cycle;Signal;HPM_P1;HPM_P2
2022/05/01 00:02:04;;;;;;;;;;;;;;;21.05;30.85;98312.59;5072939;28;1079;-74
2022/05/01 00:04:29;;;;;;;;;;;;;;;21.32;30.47;98309.66;5072733;28;938;-74
2022/05/01 00:06:55;;;;;;;;;;;;;;;21.78;29.54;98305.81;5074948;28;1150;-74
2022/05/01 00:09:20;;;;;;;;;;;;;;;22.05;29.07;98304.81;5075105;28;1032;-74
2022/05/01 00:11:46;;;;;;;;;;;;;;;22.26;28.73;98304.31;5075068;28;1056;-74
2022/05/01 00:14:12;;;;;;;;;;;;;;;22.05;29.00;98310.47;5075302;28;980;-74
2022/05/01 00:16:37;;;;;;;;;;;;;;;21.53;29.81;98302.75;5075408;28;1017;-74
2022/05/01 00:19:03;;;;;;;;;;;;;;;21.21;30.38;98309.84;5075441;28;1907;-73
2022/05/01 00:21:28;;;;;;;;;;;;;;;21.10;30.81;98309.25;5075225;28;874;-74
2022/05/01 00:23:54;;;;;;;;;;;;;;;21.18;30.56;98316.38;5075623;28;1187;-74
2022/05/01 00:26:19;;;;;;;;;;;;;;;21.20;30.70;98305.44;5074897;28;1140;-74
2022/05/01 00:28:45;;;;;;;;;;;;;;;21.12;30.77;98306.00;5075426;28;927;-74
2022/05/01 00:31:10;;;;;;;;;;;;;;;21.04;31.08;98302.53;5075175;28;1129;-74
2022/05/01 00:36:26;;;;;;;;;;;;;;;21.04;31.24;98296.84;5074856;28;896;-73
2022/05/01 00:39:04;;;;;;;;;;;;;;;21.10;31.02;98303.59;5074872;28;1975;-74
2022/05/01 00:41:31;;;;;;;;;;;;;;;21.00;31.34;98301.78;5075130;28;915;-74
2022/05/01 00:44:01;;;;;;;;;;;;;;;21.12;31.27;98294.66;5075110;28;932;-74
2022/05/01 00:46:27;;;;;;;;;;;;;;;21.74;30.32;98302.28;5074750;28;958;-74
2022/05/01 00:48:53;;;;;;;;;;;;;;;22.03;29.56;98295.97;5075600;28;872;-74
2022/05/01 00:51:20;;;;;;;;;;;;;;;21.60;29.99;98296.91;5078980;28;943;-74
2022/05/01 00:53:45;;;;;;;;;;;;;;;21.36;30.19;98299.06;5079269;28;800;-74
2022/05/01 00:56:11;;;;;;;;;;;;;;;21.16;30.72;98290.53;5079097;28;929;-74
2022/05/01 00:58:37;;;;;;;;;;;;;;;21.23;30.63;98295.25;5076238;28;1898;-74
2022/05/01 01:01:02;;;;;;;;;;;;;;;21.07;31.30;98305.25;5076803;28;992;-74
2022/05/01 01:03:28;;;;;;;;;;;;;;;21.06;31.20;98302.88;5076334;28;940;-74
2022/05/01 01:05:54;;;;;;;;;;;;;;;20.97;31.22;98303.44;5076108;28;917;-74
2022/05/01 01:08:19;;;;;;;;;;;;;;;21.02;31.11;98304.97;5076011;28;927;-74
2022/05/01 01:10:44;;;;;;;;;;;;;;;21.06;31.25;98305.69;5055931;28;1621;-74
2022/05/01 01:13:12;;;;;;;;;;;;;;;20.88;31.40;98302.41;5056003;28;988;-74
2022/05/01 01:15:37;;;;;;;;;;;;;;;21.25;31.50;98304.13;5056090;28;1171;-74
2022/05/01 01:18:03;;;;;;;;;;;;;;;21.79;30.45;98303.78;5055948;28;1914;-74
2022/05/01 01:20:29;;;;;;;;;;;;;;;21.97;29.96;98294.91;5055979;28;1463;-74
2022/05/01 01:22:55;;;;;;;;;;;;;;;21.51;30.44;98308.06;5055697;28;1238;-74
2022/05/01 01:25:22;;;;;;;;;;;;;;;21.42;30.54;98299.34;5056194;28;849;-73
2022/05/01 01:27:48;;;;;;;;;;;;;;;21.33;30.61;98311.25;5055688;28;1086;-74
2022/05/01 01:32:58;;;;;;;;;;;;;;;21.01;31.50;98307.00;5035802;28;997;-74
2022/05/01 01:35:23;;;;;;;;;;;;;;;21.06;31.36;98314.19;5035801;28;1030;-74
2022/05/01 01:37:49;;;;;;;;;;;;;;;21.02;31.18;98313.44;5035764;28;1989;-74
2022/05/01 01:40:41;;;;;;;;;;;;;;;21.43;31.17;98315.09;5035614;28;923;-74
2022/05/01 01:43:07;;;;;;;;;;;;;;;21.93;29.87;98308.34;5033827;28;1087;-74
2022/05/01 01:45:32;;;;;;;;;;;;;;;21.90;29.80;98310.00;5035390;28;1023;-73
2022/05/01 01:48:10;;;;;;;;;;;;;;;21.36;30.70;98306.75;5021851;28;1037;-74
2022/05/01 01:50:35;;;;;;;;;;;;;;;21.03;31.06;98309.38;5055380;28;995;-74
2022/05/01 01:53:01;;;;;;;;;;;;;;;21.12;31.13;98306.78;5055616;28;908;-74
2022/05/01 01:55:26;;;;;;;;;;;;;;;21.03;31.33;98309.38;5055443;28;934;-74
2022/05/01 01:57:52;;;;;;;;;;;;;;;21.22;31.00;98316.31;5055639;28;1891;-74
2022/05/01 02:00:17;;;;;;;;;;;;;;;21.24;31.03;98308.16;5057222;28;957;-74
2022/05/01 02:02:43;;;;;;;;;;;;;;;21.10;31.43;98314.13;5077257;28;918;-73
2022/05/01 02:05:08;;;;;;;;;;;;;;;21.57;31.18;98306.31;5077479;28;895;-73
2022/05/01 02:07:34;;;;;;;;;;;;;;;21.93;30.08;98309.13;5058725;28;959;-74
2022/05/01 02:10:00;;;;;;;;;;;;;;;22.21;29.90;98302.00;5077912;28;912;-74
2022/05/01 02:12:25;;;;;;;;;;;;;;;21.53;30.63;98314.88;5077356;28;842;-74
2022/05/01 02:14:51;;;;;;;;;;;;;;;21.24;31.06;98309.00;5077351;28;1086;-74
2022/05/01 02:17:16;;;;;;;;;;;;;;;21.09;31.31;98313.34;5077439;28;759;-74
2022/05/01 02:19:42;;;;;;;;;;;;;;;21.17;31.06;98317.59;5058595;28;1906;-74
2022/05/01 02:22:07;;;;;;;;;;;;;;;21.59;30.90;98313.09;5077329;28;1315;-74
2022/05/01 02:24:33;;;;;;;;;;;;;;;22.00;30.24;98320.28;5077501;28;918;-74
2022/05/01 02:26:59;;;;;;;;;;;;;;;21.72;30.12;98310.41;5077343;28;946;-74
2022/05/01 02:29:25;;;;;;;;;;;;;;;21.47;30.75;98310.16;5075016;28;990;-74
2022/05/01 02:31:53;;;;;;;;;;;;;;;21.20;30.87;98313.13;5077396;28;948;-74
2022/05/01 02:34:19;;;;;;;;;;;;;;;21.07;31.57;98321.44;5058930;28;932;-73
2022/05/01 02:36:44;;;;;;;;;;;;;;;21.01;31.58;98326.00;5075824;28;924;-74
2022/05/01 02:39:09;;;;;;;;;;;;;;;21.06;31.63;98319.84;5057954;28;1906;-74
2022/05/01 02:41:35;;;;;;;;;;;;;;;21.00;31.76;98315.94;5076986;28;909;-74
2022/05/01 02:44:00;;;;;;;;;;;;;;;21.14;31.54;98310.00;5076599;28;915;-74
2022/05/01 02:46:26;;;;;;;;;;;;;;;21.27;31.93;98313.75;5077277;28;891;-73
2022/05/01 02:48:51;;;;;;;;;;;;;;;21.73;30.84;98322.53;5076777;28;1153;-74
2022/05/01 02:51:17;;;;;;;;;;;;;;;22.01;30.33;98321.88;5076653;28;849;-74
2022/05/01 02:53:43;;;;;;;;;;;;;;;21.72;30.49;98321.75;5076847;28;915;-73
2022/05/01 02:56:09;;;;;;;;;;;;;;;21.45;30.70;98323.94;5076854;28;1073;-74
2022/05/01 02:58:34;;;;;;;;;;;;;;;21.16;31.04;98321.66;5037507;28;1910;-74
2022/05/01 03:01:00;;;;;;;;;;;;;;;21.19;31.26;98323.66;5054147;28;868;-74
2022/05/01 03:03:25;;;;;;;;;;;;;;;21.26;31.38;98323.50;5034100;28;929;-74
2022/05/01 03:05:52;;;;;;;;;;;;;;;21.17;31.35;98323.25;5034044;28;1089;-75
2022/05/01 03:08:18;;;;;;;;;;;;;;;21.11;31.39;98322.16;5034097;28;969;-75
2022/05/01 03:10:43;;;;;;;;;;;;;;;21.12;31.56;98334.28;5033980;28;1226;-75
2022/05/01 03:13:09;;;;;;;;;;;;;;;21.06;31.91;98331.97;5033755;28;1018;-75
2022/05/01 03:15:34;;;;;;;;;;;;;;;21.02;31.90;98319.09;5033981;28;1019;-75
2022/05/01 03:23:28;;;;;;;;;;;;;;;20.97;31.65;98339.41;5033830;28;1547;-75
2022/05/01 03:25:53;;;;;;;;;;;;;;;21.21;31.31;98335.31;5033766;28;1108;-75
2022/05/01 03:28:19;;;;;;;;;;;;;;;21.15;31.47;98341.91;5033447;28;1018;-75
2022/05/01 03:30:44;;;;;;;;;;;;;;;21.16;31.47;98341.47;5033782;28;1059;-75
2022/05/01 03:33:10;;;;;;;;;;;;;;;20.94;32.04;98351.63;5033550;28;918;-75
2022/05/01 03:35:36;;;;;;;;;;;;;;;21.00;31.98;98356.31;5060516;28;1241;-75
2022/05/01 03:38:02;;;;;;;;;;;;;;;21.18;31.82;98355.97;5075911;28;1906;-75
2022/05/01 03:40:28;;;;;;;;;;;;;;;21.87;30.74;98356.22;5073049;28;1001;-75
2022/05/01 03:42:54;;;;;;;;;;;;;;;22.05;30.01;98358.66;5075779;28;878;-75
2022/05/01 03:45:19;;;;;;;;;;;;;;;21.60;30.60;98353.53;5075505;28;1092;-75
2022/05/01 03:47:45;;;;;;;;;;;;;;;21.26;31.18;98367.97;5075679;28;1101;-75
2022/05/01 03:50:11;;;;;;;;;;;;;;;21.29;31.16;98362.22;5075907;28;854;-75
2022/05/01 03:52:37;;;;;;;;;;;;;;;21.27;31.21;98370.38;5074720;28;963;-75
2022/05/01 03:55:02;;;;;;;;;;;;;;;21.21;31.54;98374.13;5075632;28;948;-75
2022/05/01 03:57:28;;;;;;;;;;;;;;;21.02;31.69;98375.69;5076147;28;867;-75
2022/05/01 03:59:53;;;;;;;;;;;;;;;21.03;31.74;98383.75;5075512;28;1917;-75
2022/05/01 04:02:19;;;;;;;;;;;;;;;21.04;31.90;98381.72;5075655;28;896;-75
2022/05/01 04:04:46;;;;;;;;;;;;;;;21.12;31.75;98386.00;5075193;28;980;-75
2022/05/01 04:07:12;;;;;;;;;;;;;;;20.97;32.16;98379.00;5075167;28;931;-75
2022/05/01 04:09:37;;;;;;;;;;;;;;;21.04;31.90;98378.91;5072629;28;1468;-75
2022/05/01 04:12:06;;;;;;;;;;;;;;;21.03;31.89;98377.28;5032807;28;1084;-75
2022/05/01 04:14:32;;;;;;;;;;;;;;;21.38;31.81;98380.72;5032841;28;1474;-75
2022/05/01 04:16:59;;;;;;;;;;;;;;;21.89;30.83;98369.94;5012955;28;1002;-75
2022/05/01 04:19:25;;;;;;;;;;;;;;;22.08;30.64;98377.63;5012982;28;1914;-75
2022/05/01 04:21:50;;;;;;;;;;;;;;;21.62;31.00;98373.75;5012717;28;1114;-75
2022/05/01 04:24:16;;;;;;;;;;;;;;;21.36;31.31;98371.88;5012529;28;1122;-75
2022/05/01 04:26:41;;;;;;;;;;;;;;;21.21;31.32;98371.31;5012692;28;930;-75
2022/05/01 04:31:50;;;;;;;;;;;;;;;21.20;32.22;98370.50;5012526;28;1110;-75
2022/05/01 04:34:16;;;;;;;;;;;;;;;21.67;31.16;98361.91;5012947;28;941;-75
2022/05/01 04:36:42;;;;;;;;;;;;;;;21.95;30.69;98368.19;5012613;28;994;-75
2022/05/01 04:39:07;;;;;;;;;;;;;;;21.65;30.80;98358.69;5012704;28;1914;-75
2022/05/01 04:41:32;;;;;;;;;;;;;;;21.38;30.99;98361.69;5029862;28;1022;-75
2022/05/01 04:43:58;;;;;;;;;;;;;;;21.25;31.10;98361.53;5050104;28;980;-75
2022/05/01 04:46:23;;;;;;;;;;;;;;;21.13;31.25;98364.19;5052608;28;1017;-75
2022/05/01 04:48:49;;;;;;;;;;;;;;;21.14;31.29;98365.75;5071780;28;916;-75
2022/05/01 04:51:14;;;;;;;;;;;;;;;21.14;31.42;98365.75;5074603;28;846;-75
2022/05/01 04:53:40;;;;;;;;;;;;;;;21.02;31.88;98375.69;5075333;28;886;-75
2022/05/01 04:58:49;;;;;;;;;;;;;;;20.92;32.17;98371.81;5074769;28;1983;-75
2022/05/01 05:01:15;;;;;;;;;;;;;;;20.97;31.94;98364.88;5074623;28;823;-75
2022/05/01 05:03:40;;;;;;;;;;;;;;;21.39;31.95;98359.66;5072563;28;934;-75
2022/05/01 05:06:06;;;;;;;;;;;;;;;21.94;30.92;98360.94;5074560;28;912;-75
2022/05/01 05:11:15;;;;;;;;;;;;;;;21.52;31.31;98357.78;5075094;28;1181;-75
2022/05/01 05:13:42;;;;;;;;;;;;;;;21.35;31.26;98358.91;5074793;28;937;-75
2022/05/01 05:16:12;;;;;;;;;;;;;;;21.24;31.57;98362.75;5074506;28;1166;-75
2022/05/01 05:18:39;;;;;;;;;;;;;;;21.12;31.70;98356.91;5074923;28;1934;-75
2022/05/01 05:21:05;;;;;;;;;;;;;;;21.04;32.20;98357.06;5074781;28;979;-75
2022/05/01 05:23:31;;;;;;;;;;;;;;;21.02;31.99;98353.06;5074441;28;1071;-75
2022/05/01 05:25:56;;;;;;;;;;;;;;;21.15;32.86;98345.53;5074584;28;871;-75
2022/05/01 05:28:22;;;;;;;;;;;;;;;21.63;31.71;98347.03;5074615;28;925;-75
2022/05/01 05:30:48;;;;;;;;;;;;;;;21.83;31.01;98344.97;5074255;28;914;-75
2022/05/01 05:33:14;;;;;;;;;;;;;;;21.46;31.41;98345.38;5074730;28;961;-75
2022/05/01 05:35:40;;;;;;;;;;;;;;;21.17;31.79;98331.75;5074816;28;900;-75
2022/05/01 05:38:05;;;;;;;;;;;;;;;21.05;32.19;98340.88;5077908;28;1969;-75
2022/05/01 05:40:31;;;;;;;;;;;;;;;21.07;31.83;98332.75;5078325;28;880;-75
2022/05/01 05:42:56;;;;;;;;;;;;;;;21.06;31.94;98339.66;5077859;28;840;-75
2022/05/01 05:45:22;;;;;;;;;;;;;;;21.04;31.99;98342.13;5077693;28;1111;-75
2022/05/01 05:47:47;;;;;;;;;;;;;;;21.08;32.45;98337.19;5075621;28;942;-75
2022/05/01 05:50:13;;;;;;;;;;;;;;;21.56;32.00;98341.53;5075286;28;1270;-75
2022/05/01 05:52:38;;;;;;;;;;;;;;;21.89;31.11;98342.41;5075453;28;1235;-75
2022/05/01 05:55:04;;;;;;;;;;;;;;;21.58;31.46;98345.50;5075634;28;1071;-75
2022/05/01 05:57:29;;;;;;;;;;;;;;;21.28;31.86;98343.66;5058416;28;916;-75
2022/05/01 05:59:55;;;;;;;;;;;;;;;21.14;31.88;98338.28;5075255;28;1991;-75
2022/05/01 06:02:20;;;;;;;;;;;;;;;21.25;31.56;98338.09;5075018;28;1086;-75
2022/05/01 06:04:46;;;;;;;;;;;;;;;21.12;32.06;98339.94;5075239;28;939;-75
2022/05/01 06:07:11;;;;;;;;;;;;;;;21.71;31.55;98351.31;5074849;28;973;-75
2022/05/01 06:09:37;;;;;;;;;;;;;;;22.04;30.69;98343.69;5075172;28;1039;-75
2022/05/01 06:12:02;;;;;;;;;;;;;;;21.70;31.07;98352.53;5074892;28;947;-75
2022/05/01 06:14:28;;;;;;;;;;;;;;;21.41;31.40;98348.72;5074920;28;944;-75
2022/05/01 06:16:53;;;;;;;;;;;;;;;21.23;31.79;98358.31;5075070;28;852;-75
2022/05/01 06:19:18;;;;;;;;;;;;;;;21.26;31.48;98346.13;5054567;28;1910;-75
2022/05/01 06:21:44;;;;;;;;;;;;;;;21.00;32.05;98356.31;5054533;28;1146;-75
2022/05/01 06:24:09;;;;;;;;;;;;;;;21.11;31.95;98358.16;5054783;28;1023;-75
2022/05/01 06:26:35;;;;;;;;;;;;;;;21.11;31.70;98361.78;5054688;28;1063;-75
2022/05/01 06:29:01;;;;;;;;;;;;;;;21.15;31.73;98362.53;5054417;28;980;-75
2022/05/01 06:31:27;;;;;;;;;;;;;;;21.44;32.07;98361.97;5054476;28;936;-75
2022/05/01 06:33:52;;;;;;;;;;;;;;;21.84;31.48;98357.88;5037958;28;1136;-75
2022/05/01 06:36:18;;;;;;;;;;;;;;;22.07;30.68;98364.66;5014535;28;1005;-75
2022/05/01 06:38:44;;;;;;;;;;;;;;;21.54;31.59;98367.41;4975648;28;1910;-75
2022/05/01 06:41:09;;;;;;;;;;;;;;;21.33;31.65;98371.47;4976064;28;1026;-75
2022/05/01 06:43:35;;;;;;;;;;;;;;;21.30;31.75;98363.88;4975456;28;1159;-75
2022/05/01 06:46:00;;;;;;;;;;;;;;;21.13;31.78;98381.94;4975808;28;1030;-75
2022/05/01 06:48:25;;;;;;;;;;;;;;;21.43;32.04;98377.38;4975093;28;1181;-75
2022/05/01 06:50:51;;;;;;;;;;;;;;;21.79;31.33;98375.41;4975521;28;930;-75
2022/05/01 06:53:16;;;;;;;;;;;;;;;22.02;31.17;98379.34;4975549;28;1098;-75
2022/05/01 06:55:42;;;;;;;;;;;;;;;21.54;31.27;98383.63;4978256;28;962;-75
2022/05/01 06:58:07;;;;;;;;;;;;;;;21.22;31.99;98385.00;5014512;28;1971;-75
2022/05/01 07:00:33;;;;;;;;;;;;;;;21.22;31.70;98379.34;5014422;28;992;-75
2022/05/01 07:02:58;;;;;;;;;;;;;;;21.21;31.75;98377.75;5014405;28;1140;-75
2022/05/01 07:05:24;;;;;;;;;;;;;;;21.25;31.66;98384.16;5014399;28;916;-75
2022/05/01 07:07:50;;;;;;;;;;;;;;;21.11;31.88;98386.47;5028726;28;928;-75
2022/05/01 07:10:15;;;;;;;;;;;;;;;21.17;31.66;98394.00;5034457;28;907;-75
2022/05/01 07:12:41;;;;;;;;;;;;;;;20.96;32.24;98400.06;5033805;28;941;-75
2022/05/01 07:15:06;;;;;;;;;;;;;;;21.18;31.79;98401.25;5036875;28;948;-75
2022/05/01 07:17:32;;;;;;;;;;;;;;;21.05;31.67;98403.13;5076735;28;854;-75
2022/05/01 07:19:58;;;;;;;;;;;;;;;21.32;32.25;98403.84;5075965;28;1909;-75
2022/05/01 07:22:23;;;;;;;;;;;;;;;21.60;32.00;98407.34;5076465;28;1246;-75
2022/05/01 07:24:48;;;;;;;;;;;;;;;21.90;31.31;98414.81;5076001;28;922;-75
2022/05/01 07:27:14;;;;;;;;;;;;;;;21.88;30.74;98405.19;5076235;28;916;-75
2022/05/01 07:29:39;;;;;;;;;;;;;;;21.43;31.69;98408.50;5075889;28;995;-75
2022/05/01 07:32:05;;;;;;;;;;;;;;;21.21;31.58;98411.72;5075845;28;1107;-75
2022/05/01 07:34:31;;;;;;;;;;;;;;;21.17;31.83;98410.97;5076189;28;923;-75
2022/05/01 07:36:56;;;;;;;;;;;;;;;21.18;31.81;98404.09;5076291;28;865;-75
2022/05/01 07:39:21;;;;;;;;;;;;;;;21.08;31.99;98416.41;5056998;28;1917;-75
2022/05/01 07:41:47;;;;;;;;;;;;;;;21.30;31.65;98409.16;5076133;28;1009;-75
2022/05/01 07:44:12;;;;;;;;;;;;;;;21.72;31.78;98405.91;5052509;28;2390;-75
2022/05/01 07:46:41;;;;;;;;;;;;;;;21.97;30.77;98411.06;5053297;28;908;-75
2022/05/01 07:49:07;;;;;;;;;;;;;;;21.38;31.54;98384.34;5053273;28;1189;-75
2022/05/01 07:51:32;;;;;;;;;;;;;;;21.42;31.65;98415.41;5053314;28;878;-75
2022/05/01 07:53:58;;;;;;;;;;;;;;;21.35;31.41;98399.38;5052735;28;962;-75
2022/05/01 07:56:26;;;;;;;;;;;;;;;21.19;31.62;98402.88;5053259;28;866;-75
2022/05/01 07:58:52;;;;;;;;;;;;;;;21.21;31.48;98416.59;5052256;28;1922;-75
2022/05/01 08:01:17;;;;;;;;;;;;;;;20.98;32.12;98403.25;5053038;28;957;-75
2022/05/01 08:06:26;;;;;;;;;;;;;;;21.05;31.96;98408.78;5052853;28;990;-75
2022/05/01 08:08:52;;;;;;;;;;;;;;;21.13;31.74;98409.44;5053207;28;1057;-75
2022/05/01 08:11:18;;;;;;;;;;;;;;;21.39;32.29;98411.41;5052963;28;959;-75
2022/05/01 08:13:43;;;;;;;;;;;;;;;21.87;31.07;98401.56;5052675;28;1022;-75
2022/05/01 08:16:08;;;;;;;;;;;;;;;21.73;30.88;98402.66;5052845;28;901;-75
2022/05/01 08:21:18;;;;;;;;;;;;;;;21.27;31.59;98407.16;5052576;28;961;-75
2022/05/01 08:23:43;;;;;;;;;;;;;;;21.17;31.76;98404.53;5012808;28;1052;-75
2022/05/01 08:26:10;;;;;;;;;;;;;;;21.14;31.65;98400.53;5012781;28;927;-75
2022/05/01 08:28:41;;;;;;;;;;;;;;;21.19;31.56;98394.38;4993157;28;1297;-75
2022/05/01 08:31:06;;;;;;;;;;;;;;;21.12;31.51;98391.66;4993196;28;1019;-75
2022/05/01 08:33:32;;;;;;;;;;;;;;;21.16;31.55;98398.06;4993514;28;959;-75
2022/05/01 08:35:57;;;;;;;;;;;;;;;21.30;31.81;98392.19;5012912;28;1371;-75
2022/05/01 08:38:23;;;;;;;;;;;;;;;21.61;31.58;98389.16;5012580;28;1906;-75
2022/05/01 08:40:49;;;;;;;;;;;;;;;21.97;30.70;98385.56;5012602;28;987;-75
2022/05/01 08:43:14;;;;;;;;;;;;;;;21.44;31.34;98378.97;4996132;28;1136;-75
2022/05/01 08:45:59;;;;;;;;;;;;;;;21.34;31.76;98392.09;5012684;28;962;-75
2022/05/01 08:48:25;;;;;;;;;;;;;;;21.29;31.49;98390.53;5012613;28;951;-75
2022/05/01 08:50:52;;;;;;;;;;;;;;;21.30;31.43;98392.19;4973474;28;933;-75
2022/05/01 08:53:17;;;;;;;;;;;;;;;21.11;31.64;98395.75;4973549;28;933;-75
2022/05/01 08:55:43;;;;;;;;;;;;;;;21.10;31.58;98385.66;4973357;28;967;-75
2022/05/01 08:58:08;;;;;;;;;;;;;;;20.99;31.63;98390.72;4973543;28;1940;-75
2022/05/01 09:00:34;;;;;;;;;;;;;;;21.07;31.65;98389.34;4973648;28;1026;-75
2022/05/01 09:02:59;;;;;;;;;;;;;;;21.45;32.05;98391.88;4973269;28;988;-75
2022/05/01 09:05:24;;;;;;;;;;;;;;;21.78;31.30;98382.31;4966394;28;900;-75
2022/05/01 09:07:50;;;;;;;;;;;;;;;21.93;30.71;98384.84;5012860;28;1002;-75
2022/05/01 09:10:15;;;;;;;;;;;;;;;21.44;31.35;98378.97;5013878;28;1089;-75
2022/05/01 09:12:50;;;;;;;;;;;;;;;21.24;31.63;98379.75;5016355;28;1039;-75
2022/05/01 09:15:30;;;;;;;;;;;;;;;21.19;31.73;98385.91;5016414;28;1107;-75
2022/05/01 09:18:02;;;;;;;;;;;;;;;21.20;31.68;98390.31;5016012;28;945;-75
2022/05/01 09:20:28;;;;;;;;;;;;;;;21.11;31.56;98389.28;5016486;28;886;-76
2022/05/01 09:22:54;;;;;;;;;;;;;;;21.07;31.58;98383.69;5032512;28;1226;-75
2022/05/01 09:25:22;;;;;;;;;;;;;;;21.07;31.93;98390.13;5055906;28;939;-75
2022/05/01 09:27:49;;;;;;;;;;;;;;;21.13;31.61;98393.25;5068102;28;1101;-75
2022/05/01 09:30:20;;;;;;;;;;;;;;;21.08;31.70;98390.94;5096155;28;1009;-75
2022/05/01 09:32:46;;;;;;;;;;;;;;;21.62;31.49;98387.91;5096419;28;931;-75
2022/05/01 09:35:31;;;;;;;;;;;;;;;21.95;30.81;98385.19;5096369;28;946;-75
2022/05/01 09:38:29;;;;;;;;;;;;;;;21.66;31.00;98391.47;5095909;28;999;-75
2022/05/01 09:40:57;;;;;;;;;;;;;;;21.35;31.27;98387.22;5055690;28;943;-75
2022/05/01 09:43:34;;;;;;;;;;;;;;;21.21;31.58;98394.75;5055886;28;958;-75
2022/05/01 09:46:12;;;;;;;;;;;;;;;21.12;31.65;98386.00;4996061;28;979;-75
2022/05/01 09:48:37;;;;;;;;;;;;;;;21.18;31.32;98389.13;4996425;28;975;-75
2022/05/01 09:51:16;;;;;;;;;;;;;;;21.22;31.25;98390.69;4979132;28;991;-75
2022/05/01 09:53:44;;;;;;;;;;;;;;;21.24;31.38;98398.72;4976530;28;1097;-75
2022/05/01 09:56:10;;;;;;;;;;;;;;;21.18;31.33;98394.81;4976435;28;1024;-75
2022/05/01 09:58:40;;;;;;;;;;;;;;;21.41;31.72;98391.19;4976258;28;1899;-75
2022/05/01 10:01:11;;;;;;;;;;;;;;;21.75;31.17;98393.69;4976435;28;1073;-75
2022/05/01 10:03:41;;;;;;;;;;;;;;;21.84;30.82;98394.72;4976354;28;1106;-75
2022/05/01 10:06:09;;;;;;;;;;;;;;;21.53;31.11;98393.34;4976687;28;922;-75
2022/05/01 10:08:36;;;;;;;;;;;;;;;21.22;31.71;98402.00;4976066;28;1039;-75
2022/05/01 10:11:01;;;;;;;;;;;;;;;21.25;31.47;98394.69;4976165;28;1014;-75
2022/05/01 10:13:27;;;;;;;;;;;;;;;21.27;31.36;98404.31;4975347;28;1815;-75
2022/05/01 10:15:53;;;;;;;;;;;;;;;21.15;31.37;98407.81;4987247;28;1066;-75
2022/05/01 10:18:18;;;;;;;;;;;;;;;21.10;31.41;98405.47;5056817;28;1975;-75
2022/05/01 10:20:44;;;;;;;;;;;;;;;21.09;31.58;98409.53;5089274;28;1228;-75
2022/05/01 10:23:10;;;;;;;;;;;;;;;21.13;31.61;98410.25;5088836;28;1299;-75
2022/05/01 10:25:37;;;;;;;;;;;;;;;21.28;31.88;98408.75;5057292;28;987;-75
2022/05/01 10:28:10;;;;;;;;;;;;;;;21.72;31.58;98405.91;5115257;28;1002;-75
2022/05/01 10:33:43;;;;;;;;;;;;;;;21.40;31.45;98407.38;5100895;28;928;-75
2022/05/01 10:36:18;;;;;;;;;;;;;;;21.23;31.58;98397.94;5115028;28;1024;-75
2022/05/01 10:39:02;;;;;;;;;;;;;;;21.27;31.49;98397.88;5094338;28;1902;-75
2022/05/01 10:41:29;;;;;;;;;;;;;;;21.20;31.64;98395.97;5094657;28;1035;-75
2022/05/01 10:43:57;;;;;;;;;;;;;;;21.08;31.97;98391.72;5094905;28;946;-75
2022/05/01 10:46:22;;;;;;;;;;;;;;;21.08;31.69;98402.25;5095055;28;939;-75
2022/05/01 10:48:48;;;;;;;;;;;;;;;21.16;31.55;98395.25;5094573;28;871;-75
2022/05/01 10:51:31;;;;;;;;;;;;;;;21.49;32.07;98398.28;5094570;28;963;-75
2022/05/01 10:54:15;;;;;;;;;;;;;;;21.93;31.07;98394.13;5094421;28;1037;-75
2022/05/01 10:56:41;;;;;;;;;;;;;;;21.52;31.29;98391.75;5094513;28;1453;-75
2022/05/01 10:59:25;;;;;;;;;;;;;;;21.27;31.58;98398.66;5072977;28;1883;-75
2022/05/01 11:01:53;;;;;;;;;;;;;;;21.07;31.70;98397.81;5054399;28;986;-75
2022/05/01 11:04:22;;;;;;;;;;;;;;;21.29;31.38;98395.38;5054137;28;943;-75
2022/05/01 11:06:51;;;;;;;;;;;;;;;21.29;31.10;98389.72;5070222;28;1372;-75
2022/05/01 11:09:19;;;;;;;;;;;;;;;21.12;31.57;98394.50;5060372;28;977;-75
2022/05/01 11:11:45;;;;;;;;;;;;;;;21.11;31.83;98406.25;5073806;28;1000;-75
2022/05/01 11:14:12;;;;;;;;;;;;;;;21.53;31.83;98410.34;5053336;28;1013;-75
2022/05/01 11:16:51;;;;;;;;;;;;;;;21.93;30.79;98399.00;5053716;28;1095;-75
2022/05/01 11:19:16;;;;;;;;;;;;;;;21.64;30.83;98393.91;5020611;28;1906;-75
2022/05/01 11:21:42;;;;;;;;;;;;;;;21.41;31.40;98396.84;5053407;28;1100;-75
2022/05/01 11:24:08;;;;;;;;;;;;;;;21.32;31.25;98395.38;5036867;28;1304;-75
2022/05/01 11:26:34;;;;;;;;;;;;;;;21.19;31.31;98391.56;5053394;28;941;-75
2022/05/01 11:29:13;;;;;;;;;;;;;;;21.07;31.58;98392.97;5013953;28;1022;-75
2022/05/01 11:31:42;;;;;;;;;;;;;;;21.02;31.63;98398.31;5014080;28;989;-75
2022/05/01 11:34:17;;;;;;;;;;;;;;;21.26;31.90;98382.91;5013443;28;959;-75
2022/05/01 11:36:54;;;;;;;;;;;;;;;21.70;31.18;98380.84;5013621;28;894;-75
2022/05/01 11:39:22;;;;;;;;;;;;;;;21.75;30.68;98377.50;5013533;28;1983;-75
2022/05/01 11:42:00;;;;;;;;;;;;;;;21.33;31.45;98368.66;5013827;28;957;-75
2022/05/01 11:44:26;;;;;;;;;;;;;;;21.31;31.33;98365.47;5017077;28;970;-75
2022/05/01 11:46:55;;;;;;;;;;;;;;;21.19;31.25;98357.59;5033615;28;1090;-75
2022/05/01 11:49:21;;;;;;;;;;;;;;;21.23;31.31;98357.50;5052989;28;1046;-75
2022/05/01 11:51:47;;;;;;;;;;;;;;;21.09;31.51;98358.59;5053234;28;982;-75
2022/05/01 11:54:14;;;;;;;;;;;;;;;21.07;31.47;98349.72;5053072;28;1136;-75
2022/05/01 12:02:27;;;;;;;;;;;;;;;21.82;30.78;98342.59;5052713;28;975;-76
2022/05/01 12:05:05;;;;;;;;;;;;;;;21.32;31.47;98337.97;5038060;28;1158;-75
2022/05/01 12:07:30;;;;;;;;;;;;;;;21.20;31.59;98333.72;5053168;28;930;-75
2022/05/01 12:09:56;;;;;;;;;;;;;;;21.15;31.91;98328.56;5019446;28;1052;-75
2022/05/01 12:12:23;;;;;;;;;;;;;;;21.16;31.50;98330.16;5012995;28;973;-75
2022/05/01 12:14:49;;;;;;;;;;;;;;;21.16;31.75;98324.50;5012887;28;1070;-75
2022/05/01 12:17:15;;;;;;;;;;;;;;;21.11;31.51;98322.16;5013141;28;1130;-75
2022/05/01 12:19:42;;;;;;;;;;;;;;;21.14;31.69;98321.31;5012886;28;1898;-75
2022/05/01 12:22:11;;;;;;;;;;;;;;;21.19;31.53;98323.66;5012566;28;1002;-75
2022/05/01 12:24:36;;;;;;;;;;;;;;;21.17;31.61;98314.78;5013200;28;1011;-75
2022/05/01 12:27:02;;;;;;;;;;;;;;;21.09;31.72;98307.69;5012828;28;964;-75
2022/05/01 12:29:28;;;;;;;;;;;;;;;21.47;31.87;98304.50;5012893;28;937;-75
2022/05/01 12:32:09;;;;;;;;;;;;;;;21.85;31.67;98302.81;5014788;28;1237;-75
2022/05/01 12:34:55;;;;;;;;;;;;;;;21.82;31.39;98302.94;5033125;28;995;-75
2022/05/01 12:37:21;;;;;;;;;;;;;;;21.44;31.68;98299.69;5032625;28;972;-75
2022/05/01 12:39:57;;;;;;;;;;;;;;;21.13;32.26;98297.06;4973401;28;2011;-75
2022/05/01 12:45:10;;;;;;;;;;;;;;;21.06;32.05;98295.19;4995212;28;956;-75
2022/05/01 12:47:43;;;;;;;;;;;;;;;21.13;31.77;98291.41;4999935;28;957;-75
2022/05/01 12:50:10;;;;;;;;;;;;;;;21.13;31.84;98288.56;4999325;28;978;-75
2022/05/01 12:52:36;;;;;;;;;;;;;;;21.11;31.93;98288.22;4999446;28;990;-75
2022/05/01 12:55:16;;;;;;;;;;;;;;;21.51;32.23;98288.25;4999449;28;930;-75
2022/05/01 12:57:42;;;;;;;;;;;;;;;21.82;31.39;98285.94;4980263;28;1017;-75
2022/05/01 13:00:09;;;;;;;;;;;;;;;22.20;30.64;98291.91;4980046;28;1981;-75
2022/05/01 13:02:34;;;;;;;;;;;;;;;22.10;31.02;98295.78;4980138;28;931;-75
2022/05/01 13:05:02;;;;;;;;;;;;;;;21.55;31.52;98283.28;4980129;28;993;-75
2022/05/01 13:07:31;;;;;;;;;;;;;;;21.44;31.64;98294.03;4980168;28;895;-75
2022/05/01 13:09:56;;;;;;;;;;;;;;;21.35;31.67;98291.00;4988624;28;1038;-75
2022/05/01 13:12:31;;;;;;;;;;;;;;;21.17;31.74;98286.47;5038473;28;1004;-75
2022/05/01 13:15:02;;;;;;;;;;;;;;;21.20;31.82;98285.63;5038778;28;997;-75
2022/05/01 13:17:28;;;;;;;;;;;;;;;21.27;31.70;98285.47;5050242;28;989;-75
2022/05/01 13:19:54;;;;;;;;;;;;;;;21.10;31.86;98292.28;5059031;28;1909;-75
2022/05/01 13:22:21;;;;;;;;;;;;;;;21.29;31.54;98282.19;5058635;28;1399;-75
2022/05/01 13:24:48;;;;;;;;;;;;;;;21.25;31.66;98287.94;5059016;28;939;-75
2022/05/01 13:27:14;;;;;;;;;;;;;;;21.11;31.61;98281.75;5041947;28;1323;-75
2022/05/01 13:29:40;;;;;;;;;;;;;;;21.21;31.48;98292.88;5077374;28;954;-75
2022/05/01 13:32:07;;;;;;;;;;;;;;;21.07;31.80;98276.97;5078597;28;1017;-75
2022/05/01 13:34:34;;;;;;;;;;;;;;;21.44;32.38;98271.38;5078250;28;1015;-75
2022/05/01 13:37:00;;;;;;;;;;;;;;;21.84;31.42;98267.25;5078366;28;1182;-75
2022/05/01 13:44:54;;;;;;;;;;;;;;;21.08;32.32;98266.44;5078536;28;866;-75